sensor_id;sensor_type;location;lat;lon;timestamp;temperature;humidity
33207;DHT22;19565;46.602;11.534;2023-09-12T00:00:52;20.30;99.50
33207;DHT22;19565;46.602;11.534;2023-09-12T00:03:21;20.30;99.40
33207;DHT22;19565;46.602;11.534;2023-09-12T00:05:51;20.30;99.40
33207;DHT22;19565;46.602;11.534;2023-09-12T00:08:19;20.40;99.50
33207;DHT22;19565;46.602;11.534;2023-09-12T00:10:47;20.40;99.50
33207;DHT22;19565;46.602;11.534;2023-09-12T00:13:26;20.40;99.40
33207;DHT22;19565;46.602;11.534;2023-09-12T00:15:54;20.40;99.40
33207;DHT22;19565;46.602;11.534;2023-09-12T00:18:22;20.40;99.50
33207;DHT22;19565;46.602;11.534;2023-09-12T00:20:51;20.30;99.50
33207;DHT22;19565;46.602;11.534;2023-09-12T00:23:20;20.20;99.60
33207;DHT22;19565;46.602;11.534;2023-09-12T00:25:49;20.20;99.80
33207;DHT22;19565;46.602;11.534;2023-09-12T00:28:18;20.20;99.90
33207;DHT22;19565;46.602;11.534;2023-09-12T00:30:47;20.20;99.90
33207;DHT22;19565;46.602;11.534;2023-09-12T00:33:16;20.10;99.90
33207;DHT22;19565;46.602;11.534;2023-09-12T00:35:44;20.10;99.90
33207;DHT22;19565;46.602;11.534;2023-09-12T00:38:12;20.10;99.90
33207;DHT22;19565;46.602;11.534;2023-09-12T00:40:40;20.00;99.90
33207;DHT22;19565;46.602;11.534;2023-09-12T00:43:08;20.00;99.90
33207;DHT22;19565;46.602;11.534;2023-09-12T00:45:36;20.00;99.90
33207;DHT22;19565;46.602;11.534;2023-09-12T00:48:07;20.00;99.90
33207;DHT22;19565;46.602;11.534;2023-09-12T00:50:36;20.00;99.90
33207;DHT22;19565;46.602;11.534;2023-09-12T00:53:05;20.00;99.90
33207;DHT22;19565;46.602;11.534;2023-09-12T00:55:34;20.00;99.90
33207;DHT22;19565;46.602;11.534;2023-09-12T00:58:04;20.00;99.90
33207;DHT22;19565;46.602;11.534;2023-09-12T01:00:34;20.00;99.90
33207;DHT22;19565;46.602;11.534;2023-09-12T01:03:03;19.90;99.90
33207;DHT22;19565;46.602;11.534;2023-09-12T01:05:33;19.90;99.90
33207;DHT22;19565;46.602;11.534;2023-09-12T01:08:01;19.90;99.90
33207;DHT22;19565;46.602;11.534;2023-09-12T01:10:29;19.90;99.90
33207;DHT22;19565;46.602;11.534;2023-09-12T01:12:58;19.80;99.90
33207;DHT22;19565;46.602;11.534;2023-09-12T01:15:26;19.80;99.90
33207;DHT22;19565;46.602;11.534;2023-09-12T01:17:54;19.80;99.90
33207;DHT22;19565;46.602;11.534;2023-09-12T01:20:26;19.80;99.90
33207;DHT22;19565;46.602;11.534;2023-09-12T01:23:05;19.80;99.90
33207;DHT22;19565;46.602;11.534;2023-09-12T01:25:51;19.80;99.90
33207;DHT22;19565;46.602;11.534;2023-09-12T01:28:24;19.80;99.90
33207;DHT22;19565;46.602;11.534;2023-09-12T01:30:53;19.70;99.90
33207;DHT22;19565;46.602;11.534;2023-09-12T01:33:21;19.70;99.90
33207;DHT22;19565;46.602;11.534;2023-09-12T01:35:49;19.70;99.90
33207;DHT22;19565;46.602;11.534;2023-09-12T01:38:18;19.70;99.90
33207;DHT22;19565;46.602;11.534;2023-09-12T01:40:49;19.70;99.90
33207;DHT22;19565;46.602;11.534;2023-09-12T01:43:19;19.60;99.90
33207;DHT22;19565;46.602;11.534;2023-09-12T01:45:50;19.50;99.90
33207;DHT22;19565;46.602;11.534;2023-09-12T01:48:22;19.50;99.90
33207;DHT22;19565;46.602;11.534;2023-09-12T01:50:51;19.60;99.90
33207;DHT22;19565;46.602;11.534;2023-09-12T01:53:20;19.60;99.90
33207;DHT22;19565;46.602;11.534;2023-09-12T01:55:48;19.60;99.90
33207;DHT22;19565;46.602;11.534;2023-09-12T01:58:16;19.60;99.90
33207;DHT22;19565;46.602;11.534;2023-09-12T02:00:45;19.60;99.90
33207;DHT22;19565;46.602;11.534;2023-09-12T02:03:14;19.60;99.90
33207;DHT22;19565;46.602;11.534;2023-09-12T02:05:42;19.60;99.90
33207;DHT22;19565;46.602;11.534;2023-09-12T02:08:10;19.60;99.90
33207;DHT22;19565;46.602;11.534;2023-09-12T02:10:38;19.60;99.90
33207;DHT22;19565;46.602;11.534;2023-09-12T02:13:06;19.60;99.90
33207;DHT22;19565;46.602;11.534;2023-09-12T02:15:34;19.60;99.90
33207;DHT22;19565;46.602;11.534;2023-09-12T02:18:03;19.60;99.90
33207;DHT22;19565;46.602;11.534;2023-09-12T02:20:33;19.60;99.90
33207;DHT22;19565;46.602;11.534;2023-09-12T02:23:00;19.60;99.90
33207;DHT22;19565;46.602;11.534;2023-09-12T02:25:29;19.40;99.90
33207;DHT22;19565;46.602;11.534;2023-09-12T02:27:57;19.30;99.90
33207;DHT22;19565;46.602;11.534;2023-09-12T02:30:25;19.40;99.90
33207;DHT22;19565;46.602;11.534;2023-09-12T02:32:53;19.40;99.90
33207;DHT22;19565;46.602;11.534;2023-09-12T02:35:21;19.50;99.90
33207;DHT22;19565;46.602;11.534;2023-09-12T02:37:50;19.50;99.90
33207;DHT22;19565;46.602;11.534;2023-09-12T02:40:19;19.50;99.90
33207;DHT22;19565;46.602;11.534;2023-09-12T02:42:47;19.50;99.90
33207;DHT22;19565;46.602;11.534;2023-09-12T02:45:15;19.30;99.90
33207;DHT22;19565;46.602;11.534;2023-09-12T02:47:43;19.30;99.90
33207;DHT22;19565;46.602;11.534;2023-09-12T02:50:13;19.30;99.90
33207;DHT22;19565;46.602;11.534;2023-09-12T02:52:40;19.30;99.90
33207;DHT22;19565;46.602;11.534;2023-09-12T02:55:10;19.40;99.90
33207;DHT22;19565;46.602;11.534;2023-09-12T02:57:38;19.40;99.90
33207;DHT22;19565;46.602;11.534;2023-09-12T03:00:07;19.40;99.90
33207;DHT22;19565;46.602;11.534;2023-09-12T03:02:36;19.40;99.90
33207;DHT22;19565;46.602;11.534;2023-09-12T03:05:04;19.30;99.90
33207;DHT22;19565;46.602;11.534;2023-09-12T03:07:32;19.30;99.90
33207;DHT22;19565;46.602;11.534;2023-09-12T03:10:00;19.30;99.90
33207;DHT22;19565;46.602;11.534;2023-09-12T03:12:30;19.30;99.90
33207;DHT22;19565;46.602;11.534;2023-09-12T03:14:58;19.20;99.90
33207;DHT22;19565;46.602;11.534;2023-09-12T03:17:28;19.20;99.90
33207;DHT22;19565;46.602;11.534;2023-09-12T03:19:56;19.20;99.90
33207;DHT22;19565;46.602;11.534;2023-09-12T03:22:24;19.20;99.90
33207;DHT22;19565;46.602;11.534;2023-09-12T03:24:52;19.20;99.90
33207;DHT22;19565;46.602;11.534;2023-09-12T03:27:20;19.30;99.90
33207;DHT22;19565;46.602;11.534;2023-09-12T03:29:49;19.30;99.90
33207;DHT22;19565;46.602;11.534;2023-09-12T03:32:17;19.30;99.90
33207;DHT22;19565;46.602;11.534;2023-09-12T03:34:45;19.20;99.90
33207;DHT22;19565;46.602;11.534;2023-09-12T03:37:13;19.30;99.90
33207;DHT22;19565;46.602;11.534;2023-09-12T03:39:41;19.20;99.90
33207;DHT22;19565;46.602;11.534;2023-09-12T03:42:09;19.30;99.90
33207;DHT22;19565;46.602;11.534;2023-09-12T03:44:37;19.30;99.90
33207;DHT22;19565;46.602;11.534;2023-09-12T03:47:06;19.30;99.90
33207;DHT22;19565;46.602;11.534;2023-09-12T03:49:34;19.30;99.90
33207;DHT22;19565;46.602;11.534;2023-09-12T03:52:03;19.30;99.90
33207;DHT22;19565;46.602;11.534;2023-09-12T03:54:31;19.30;99.90
33207;DHT22;19565;46.602;11.534;2023-09-12T03:56:59;19.30;99.90
33207;DHT22;19565;46.602;11.534;2023-09-12T03:59:27;19.10;99.90
33207;DHT22;19565;46.602;11.534;2023-09-12T04:01:55;19.00;99.90
33207;DHT22;19565;46.602;11.534;2023-09-12T04:04:24;19.00;99.90
33207;DHT22;19565;46.602;11.534;2023-09-12T04:06:53;19.00;99.90
33207;DHT22;19565;46.602;11.534;2023-09-12T04:09:21;19.00;99.90
33207;DHT22;19565;46.602;11.534;2023-09-12T04:11:49;19.00;99.90
33207;DHT22;19565;46.602;11.534;2023-09-12T04:14:20;19.00;99.90
33207;DHT22;19565;46.602;11.534;2023-09-12T04:16:48;18.90;99.90
33207;DHT22;19565;46.602;11.534;2023-09-12T04:19:16;18.60;99.90
33207;DHT22;19565;46.602;11.534;2023-09-12T04:21:46;18.30;99.90
33207;DHT22;19565;46.602;11.534;2023-09-12T04:24:13;18.00;99.90
33207;DHT22;19565;46.602;11.534;2023-09-12T04:26:43;18.00;99.90
33207;DHT22;19565;46.602;11.534;2023-09-12T04:29:11;17.90;99.90
33207;DHT22;19565;46.602;11.534;2023-09-12T04:31:39;17.90;99.90
33207;DHT22;19565;46.602;11.534;2023-09-12T04:34:07;17.80;99.90
33207;DHT22;19565;46.602;11.534;2023-09-12T04:36:35;17.80;99.90
33207;DHT22;19565;46.602;11.534;2023-09-12T04:39:05;18.00;99.90
33207;DHT22;19565;46.602;11.534;2023-09-12T04:41:33;18.00;99.90
33207;DHT22;19565;46.602;11.534;2023-09-12T04:44:01;17.90;99.90
33207;DHT22;19565;46.602;11.534;2023-09-12T04:46:29;17.90;99.90
33207;DHT22;19565;46.602;11.534;2023-09-12T04:48:57;17.90;99.90
33207;DHT22;19565;46.602;11.534;2023-09-12T04:51:25;17.70;99.90
33207;DHT22;19565;46.602;11.534;2023-09-12T04:53:54;17.60;99.90
33207;DHT22;19565;46.602;11.534;2023-09-12T04:56:23;17.70;99.90
33207;DHT22;19565;46.602;11.534;2023-09-12T04:58:51;17.70;99.90
33207;DHT22;19565;46.602;11.534;2023-09-12T05:01:20;17.70;99.90
33207;DHT22;19565;46.602;11.534;2023-09-12T05:03:48;17.70;99.90
33207;DHT22;19565;46.602;11.534;2023-09-12T05:06:16;17.60;99.90
33207;DHT22;19565;46.602;11.534;2023-09-12T05:08:44;17.60;99.90
33207;DHT22;19565;46.602;11.534;2023-09-12T05:11:11;17.50;99.90
33207;DHT22;19565;46.602;11.534;2023-09-12T05:13:41;17.40;99.90
33207;DHT22;19565;46.602;11.534;2023-09-12T05:16:09;17.50;99.90
33207;DHT22;19565;46.602;11.534;2023-09-12T05:18:37;17.50;99.90
33207;DHT22;19565;46.602;11.534;2023-09-12T05:21:05;17.50;99.90
33207;DHT22;19565;46.602;11.534;2023-09-12T05:23:33;17.60;99.90
33207;DHT22;19565;46.602;11.534;2023-09-12T05:26:01;17.60;99.90
33207;DHT22;19565;46.602;11.534;2023-09-12T05:28:29;17.60;99.90
33207;DHT22;19565;46.602;11.534;2023-09-12T05:30:59;17.60;99.90
33207;DHT22;19565;46.602;11.534;2023-09-12T05:33:27;17.70;99.90
33207;DHT22;19565;46.602;11.534;2023-09-12T05:35:59;17.60;99.90
33207;DHT22;19565;46.602;11.534;2023-09-12T05:38:27;17.70;99.90
33207;DHT22;19565;46.602;11.534;2023-09-12T05:40:55;17.90;99.90
33207;DHT22;19565;46.602;11.534;2023-09-12T05:43:23;18.00;99.90
33207;DHT22;19565;46.602;11.534;2023-09-12T05:45:52;18.10;99.90
33207;DHT22;19565;46.602;11.534;2023-09-12T05:48:21;18.20;99.90
33207;DHT22;19565;46.602;11.534;2023-09-12T05:50:49;18.20;99.90
33207;DHT22;19565;46.602;11.534;2023-09-12T05:53:17;18.30;99.90
33207;DHT22;19565;46.602;11.534;2023-09-12T05:55:45;18.40;99.90
33207;DHT22;19565;46.602;11.534;2023-09-12T05:58:13;18.50;99.90
33207;DHT22;19565;46.602;11.534;2023-09-12T06:00:41;18.50;99.90
33207;DHT22;19565;46.602;11.534;2023-09-12T06:03:09;18.60;99.90
33207;DHT22;19565;46.602;11.534;2023-09-12T06:05:38;18.60;99.90
33207;DHT22;19565;46.602;11.534;2023-09-12T06:08:07;18.60;99.90
33207;DHT22;19565;46.602;11.534;2023-09-12T06:10:35;18.60;99.90
33207;DHT22;19565;46.602;11.534;2023-09-12T06:13:03;18.70;99.90
33207;DHT22;19565;46.602;11.534;2023-09-12T06:15:31;18.70;99.90
33207;DHT22;19565;46.602;11.534;2023-09-12T06:17:59;18.70;99.90
33207;DHT22;19565;46.602;11.534;2023-09-12T06:20:27;18.70;99.90
33207;DHT22;19565;46.602;11.534;2023-09-12T06:22:56;18.60;99.90
33207;DHT22;19565;46.602;11.534;2023-09-12T06:25:25;18.60;99.90
33207;DHT22;19565;46.602;11.534;2023-09-12T06:27:53;18.60;99.90
33207;DHT22;19565;46.602;11.534;2023-09-12T06:30:21;18.60;99.90
33207;DHT22;19565;46.602;11.534;2023-09-12T06:32:49;18.60;99.90
33207;DHT22;19565;46.602;11.534;2023-09-12T06:35:18;18.60;99.90
33207;DHT22;19565;46.602;11.534;2023-09-12T06:37:46;18.70;99.90
33207;DHT22;19565;46.602;11.534;2023-09-12T06:40:15;18.70;99.90
33207;DHT22;19565;46.602;11.534;2023-09-12T06:42:47;18.70;99.90
33207;DHT22;19565;46.602;11.534;2023-09-12T06:45:15;18.60;99.90
33207;DHT22;19565;46.602;11.534;2023-09-12T06:47:43;18.50;99.90
33207;DHT22;19565;46.602;11.534;2023-09-12T06:50:11;18.50;99.90
33207;DHT22;19565;46.602;11.534;2023-09-12T06:52:41;18.50;99.90
33207;DHT22;19565;46.602;11.534;2023-09-12T06:55:09;18.50;99.90
33207;DHT22;19565;46.602;11.534;2023-09-12T06:57:39;18.60;99.90
33207;DHT22;19565;46.602;11.534;2023-09-12T07:00:08;18.70;99.90
33207;DHT22;19565;46.602;11.534;2023-09-12T07:02:36;18.70;99.90
33207;DHT22;19565;46.602;11.534;2023-09-12T07:05:05;18.70;99.90
33207;DHT22;19565;46.602;11.534;2023-09-12T07:07:33;18.60;99.90
33207;DHT22;19565;46.602;11.534;2023-09-12T07:10:01;18.70;99.90
33207;DHT22;19565;46.602;11.534;2023-09-12T07:12:52;18.70;99.90
33207;DHT22;19565;46.602;11.534;2023-09-12T07:15:21;18.70;99.50
33207;DHT22;19565;46.602;11.534;2023-09-12T07:17:49;18.80;99.50
33207;DHT22;19565;46.602;11.534;2023-09-12T07:20:17;18.90;99.40
33207;DHT22;19565;46.602;11.534;2023-09-12T07:22:46;18.90;99.40
33207;DHT22;19565;46.602;11.534;2023-09-12T07:25:15;19.00;99.40
33207;DHT22;19565;46.602;11.534;2023-09-12T07:27:43;19.10;99.40
33207;DHT22;19565;46.602;11.534;2023-09-12T07:30:13;19.20;99.00
33207;DHT22;19565;46.602;11.534;2023-09-12T07:32:41;19.20;98.70
33207;DHT22;19565;46.602;11.534;2023-09-12T07:35:09;19.30;98.20
33207;DHT22;19565;46.602;11.534;2023-09-12T07:37:37;19.30;98.30
33207;DHT22;19565;46.602;11.534;2023-09-12T07:40:06;19.30;98.20
33207;DHT22;19565;46.602;11.534;2023-09-12T07:42:36;19.40;98.20
33207;DHT22;19565;46.602;11.534;2023-09-12T07:45:05;19.50;97.80
33207;DHT22;19565;46.602;11.534;2023-09-12T07:47:35;19.50;97.50
33207;DHT22;19565;46.602;11.534;2023-09-12T07:50:03;19.50;96.90
33207;DHT22;19565;46.602;11.534;2023-09-12T07:52:33;19.60;97.20
33207;DHT22;19565;46.602;11.534;2023-09-12T07:55:02;19.70;96.80
33207;DHT22;19565;46.602;11.534;2023-09-12T07:57:30;19.70;96.80
33207;DHT22;19565;46.602;11.534;2023-09-12T07:59:58;19.80;96.50
33207;DHT22;19565;46.602;11.534;2023-09-12T08:02:26;19.90;96.30
33207;DHT22;19565;46.602;11.534;2023-09-12T08:04:56;20.00;95.90
33207;DHT22;19565;46.602;11.534;2023-09-12T08:07:24;20.00;95.50
33207;DHT22;19565;46.602;11.534;2023-09-12T08:09:53;20.10;95.50
33207;DHT22;19565;46.602;11.534;2023-09-12T08:12:22;20.10;95.60
33207;DHT22;19565;46.602;11.534;2023-09-12T08:14:51;20.20;95.70
33207;DHT22;19565;46.602;11.534;2023-09-12T08:17:19;20.30;95.80
33207;DHT22;19565;46.602;11.534;2023-09-12T08:19:47;20.30;95.30
33207;DHT22;19565;46.602;11.534;2023-09-12T08:22:17;20.40;95.30
33207;DHT22;19565;46.602;11.534;2023-09-12T08:24:45;20.40;95.30
33207;DHT22;19565;46.602;11.534;2023-09-12T08:27:13;20.50;95.40
33207;DHT22;19565;46.602;11.534;2023-09-12T08:29:41;20.50;95.20
33207;DHT22;19565;46.602;11.534;2023-09-12T08:32:11;20.60;95.20
33207;DHT22;19565;46.602;11.534;2023-09-12T08:34:39;20.60;95.20
33207;DHT22;19565;46.602;11.534;2023-09-12T08:37:07;20.70;95.30
33207;DHT22;19565;46.602;11.534;2023-09-12T08:39:42;20.70;95.20
33207;DHT22;19565;46.602;11.534;2023-09-12T08:42:12;20.80;95.30
33207;DHT22;19565;46.602;11.534;2023-09-12T08:44:41;20.80;95.20
33207;DHT22;19565;46.602;11.534;2023-09-12T08:47:11;20.90;95.20
33207;DHT22;19565;46.602;11.534;2023-09-12T08:49:40;20.90;95.00
33207;DHT22;19565;46.602;11.534;2023-09-12T08:52:09;20.90;95.10
33207;DHT22;19565;46.602;11.534;2023-09-12T08:54:37;21.00;94.70
33207;DHT22;19565;46.602;11.534;2023-09-12T08:57:07;21.00;94.30
33207;DHT22;19565;46.602;11.534;2023-09-12T08:59:37;21.10;94.40
33207;DHT22;19565;46.602;11.534;2023-09-12T09:02:08;21.10;94.50
33207;DHT22;19565;46.602;11.534;2023-09-12T09:04:38;21.20;93.90
33207;DHT22;19565;46.602;11.534;2023-09-12T09:07:06;21.20;93.90
33207;DHT22;19565;46.602;11.534;2023-09-12T09:09:35;21.20;94.00
33207;DHT22;19565;46.602;11.534;2023-09-12T09:12:08;21.20;93.80
33207;DHT22;19565;46.602;11.534;2023-09-12T09:14:37;21.30;93.80
33207;DHT22;19565;46.602;11.534;2023-09-12T09:17:05;21.40;93.70
33207;DHT22;19565;46.602;11.534;2023-09-12T09:19:44;21.40;92.70
33207;DHT22;19565;46.602;11.534;2023-09-12T09:22:13;21.50;92.80
33207;DHT22;19565;46.602;11.534;2023-09-12T09:24:41;21.50;93.00
33207;DHT22;19565;46.602;11.534;2023-09-12T09:27:10;21.60;93.10
33207;DHT22;19565;46.602;11.534;2023-09-12T09:29:46;21.70;93.20
33207;DHT22;19565;46.602;11.534;2023-09-12T09:32:17;21.70;92.90
33207;DHT22;19565;46.602;11.534;2023-09-12T09:34:45;21.80;92.80
33207;DHT22;19565;46.602;11.534;2023-09-12T09:37:13;21.90;92.60
33207;DHT22;19565;46.602;11.534;2023-09-12T09:39:42;21.90;92.20
33207;DHT22;19565;46.602;11.534;2023-09-12T09:42:12;22.00;92.80
33207;DHT22;19565;46.602;11.534;2023-09-12T09:44:40;22.10;92.60
33207;DHT22;19565;46.602;11.534;2023-09-12T09:47:09;22.20;92.20
33207;DHT22;19565;46.602;11.534;2023-09-12T09:49:37;22.20;91.90
33207;DHT22;19565;46.602;11.534;2023-09-12T09:52:05;22.20;91.50
33207;DHT22;19565;46.602;11.534;2023-09-12T09:54:33;22.20;91.40
33207;DHT22;19565;46.602;11.534;2023-09-12T09:57:01;22.30;91.40
33207;DHT22;19565;46.602;11.534;2023-09-12T09:59:31;22.30;91.40
33207;DHT22;19565;46.602;11.534;2023-09-12T10:01:59;22.30;91.50
33207;DHT22;19565;46.602;11.534;2023-09-12T10:04:32;22.40;91.60
33207;DHT22;19565;46.602;11.534;2023-09-12T10:07:11;22.40;91.80
33207;DHT22;19565;46.602;11.534;2023-09-12T10:09:41;22.50;91.80
33207;DHT22;19565;46.602;11.534;2023-09-12T10:12:10;22.60;91.80
33207;DHT22;19565;46.602;11.534;2023-09-12T10:14:42;22.60;91.90
33207;DHT22;19565;46.602;11.534;2023-09-12T10:17:13;22.70;92.00
33207;DHT22;19565;46.602;11.534;2023-09-12T10:19:51;22.90;91.80
33207;DHT22;19565;46.602;11.534;2023-09-12T10:22:28;23.00;91.20
33207;DHT22;19565;46.602;11.534;2023-09-12T10:24:59;23.00;91.00
33207;DHT22;19565;46.602;11.534;2023-09-12T10:27:28;23.00;90.80
33207;DHT22;19565;46.602;11.534;2023-09-12T10:29:58;23.10;91.20
33207;DHT22;19565;46.602;11.534;2023-09-12T10:32:28;23.10;90.70
33207;DHT22;19565;46.602;11.534;2023-09-12T10:34:58;23.20;90.90
33207;DHT22;19565;46.602;11.534;2023-09-12T10:37:28;23.30;90.90
33207;DHT22;19565;46.602;11.534;2023-09-12T10:39:57;23.30;91.00
33207;DHT22;19565;46.602;11.534;2023-09-12T10:42:27;23.30;91.00
33207;DHT22;19565;46.602;11.534;2023-09-12T10:44:59;23.40;91.10
33207;DHT22;19565;46.602;11.534;2023-09-12T10:47:30;23.40;90.60
33207;DHT22;19565;46.602;11.534;2023-09-12T10:49:58;23.50;90.90
33207;DHT22;19565;46.602;11.534;2023-09-12T10:52:27;23.50;91.00
33207;DHT22;19565;46.602;11.534;2023-09-12T10:54:55;23.60;90.40
33207;DHT22;19565;46.602;11.534;2023-09-12T10:57:24;23.60;90.40
33207;DHT22;19565;46.602;11.534;2023-09-12T11:00:17;23.60;90.60
33207;DHT22;19565;46.602;11.534;2023-09-12T11:02:46;23.60;89.80
33207;DHT22;19565;46.602;11.534;2023-09-12T11:05:35;23.70;90.00
33207;DHT22;19565;46.602;11.534;2023-09-12T11:08:03;23.70;90.30
33207;DHT22;19565;46.602;11.534;2023-09-12T11:10:31;23.70;90.60
33207;DHT22;19565;46.602;11.534;2023-09-12T11:12:59;23.80;91.10
33207;DHT22;19565;46.602;11.534;2023-09-12T11:15:29;23.80;91.40
33207;DHT22;19565;46.602;11.534;2023-09-12T11:18:03;23.80;91.30
33207;DHT22;19565;46.602;11.534;2023-09-12T11:20:49;23.90;91.40
33207;DHT22;19565;46.602;11.534;2023-09-12T11:23:19;24.00;91.40
33207;DHT22;19565;46.602;11.534;2023-09-12T11:25:47;24.00;91.90
33207;DHT22;19565;46.602;11.534;2023-09-12T11:28:15;24.10;92.30
33207;DHT22;19565;46.602;11.534;2023-09-12T11:30:57;24.10;92.90
33207;DHT22;19565;46.602;11.534;2023-09-12T11:33:26;24.10;92.00
33207;DHT22;19565;46.602;11.534;2023-09-12T11:35:55;24.20;92.10
33207;DHT22;19565;46.602;11.534;2023-09-12T11:38:28;24.20;92.00
33207;DHT22;19565;46.602;11.534;2023-09-12T11:40:59;24.20;91.90
33207;DHT22;19565;46.602;11.534;2023-09-12T11:43:27;24.20;91.70
33207;DHT22;19565;46.602;11.534;2023-09-12T11:45:57;24.20;92.00
33207;DHT22;19565;46.602;11.534;2023-09-12T11:48:28;24.30;92.10
33207;DHT22;19565;46.602;11.534;2023-09-12T11:50:57;24.30;91.80
33207;DHT22;19565;46.602;11.534;2023-09-12T11:53:27;24.30;91.70
33207;DHT22;19565;46.602;11.534;2023-09-12T11:55:59;24.40;91.80
33207;DHT22;19565;46.602;11.534;2023-09-12T11:58:27;24.40;91.60
33207;DHT22;19565;46.602;11.534;2023-09-12T12:00:58;24.50;91.50
33207;DHT22;19565;46.602;11.534;2023-09-12T12:03:27;24.50;91.50
33207;DHT22;19565;46.602;11.534;2023-09-12T12:05:56;24.60;91.80
33207;DHT22;19565;46.602;11.534;2023-09-12T12:08:25;24.60;92.00
33207;DHT22;19565;46.602;11.534;2023-09-12T12:10:58;24.60;92.00
33207;DHT22;19565;46.602;11.534;2023-09-12T12:13:27;24.70;92.00
33207;DHT22;19565;46.602;11.534;2023-09-12T12:15:57;24.70;91.90
33207;DHT22;19565;46.602;11.534;2023-09-12T12:18:25;24.80;91.90
33207;DHT22;19565;46.602;11.534;2023-09-12T12:20:54;24.80;91.80
33207;DHT22;19565;46.602;11.534;2023-09-12T12:23:22;24.80;91.60
33207;DHT22;19565;46.602;11.534;2023-09-12T12:25:50;24.80;91.40
33207;DHT22;19565;46.602;11.534;2023-09-12T12:28:18;24.90;91.30
33207;DHT22;19565;46.602;11.534;2023-09-12T12:30:46;24.90;91.60
33207;DHT22;19565;46.602;11.534;2023-09-12T12:33:19;25.00;91.60
33207;DHT22;19565;46.602;11.534;2023-09-12T12:36:07;25.00;91.70
33207;DHT22;19565;46.602;11.534;2023-09-12T12:38:36;25.00;91.70
33207;DHT22;19565;46.602;11.534;2023-09-12T12:41:16;25.10;92.20
33207;DHT22;19565;46.602;11.534;2023-09-12T12:43:44;25.10;92.50
33207;DHT22;19565;46.602;11.534;2023-09-12T12:46:12;25.10;92.60
33207;DHT22;19565;46.602;11.534;2023-09-12T12:48:44;25.10;92.30
33207;DHT22;19565;46.602;11.534;2023-09-12T12:51:14;25.20;92.20
33207;DHT22;19565;46.602;11.534;2023-09-12T12:53:45;25.20;92.00
33207;DHT22;19565;46.602;11.534;2023-09-12T12:56:21;25.20;91.90
33207;DHT22;19565;46.602;11.534;2023-09-12T12:58:50;25.20;92.10
33207;DHT22;19565;46.602;11.534;2023-09-12T13:01:18;25.30;92.50
33207;DHT22;19565;46.602;11.534;2023-09-12T13:03:48;25.30;92.50
33207;DHT22;19565;46.602;11.534;2023-09-12T13:06:17;25.30;91.90
33207;DHT22;19565;46.602;11.534;2023-09-12T13:08:48;25.30;91.80
33207;DHT22;19565;46.602;11.534;2023-09-12T13:11:16;25.40;91.50
33207;DHT22;19565;46.602;11.534;2023-09-12T13:13:45;25.40;91.60
33207;DHT22;19565;46.602;11.534;2023-09-12T13:16:15;25.50;91.70
33207;DHT22;19565;46.602;11.534;2023-09-12T13:18:43;25.50;91.60
33207;DHT22;19565;46.602;11.534;2023-09-12T13:21:13;25.50;91.30
33207;DHT22;19565;46.602;11.534;2023-09-12T13:23:41;25.60;91.60
33207;DHT22;19565;46.602;11.534;2023-09-12T13:26:10;25.60;91.60
33207;DHT22;19565;46.602;11.534;2023-09-12T13:28:40;25.60;91.90
33207;DHT22;19565;46.602;11.534;2023-09-12T13:31:08;25.60;91.70
33207;DHT22;19565;46.602;11.534;2023-09-12T13:33:36;25.60;91.60
33207;DHT22;19565;46.602;11.534;2023-09-12T13:36:05;25.70;91.90
33207;DHT22;19565;46.602;11.534;2023-09-12T13:38:34;25.70;92.00
33207;DHT22;19565;46.602;11.534;2023-09-12T13:41:02;25.70;91.90
33207;DHT22;19565;46.602;11.534;2023-09-12T13:43:30;25.70;91.90
33207;DHT22;19565;46.602;11.534;2023-09-12T13:45:58;25.70;91.30
33207;DHT22;19565;46.602;11.534;2023-09-12T13:48:26;25.80;91.90
33207;DHT22;19565;46.602;11.534;2023-09-12T13:50:54;25.80;91.30
33207;DHT22;19565;46.602;11.534;2023-09-12T13:53:23;25.90;92.00
33207;DHT22;19565;46.602;11.534;2023-09-12T13:55:52;25.90;91.80
33207;DHT22;19565;46.602;11.534;2023-09-12T13:58:20;26.00;91.50
33207;DHT22;19565;46.602;11.534;2023-09-12T14:00:49;26.00;91.60
33207;DHT22;19565;46.602;11.534;2023-09-12T14:03:18;26.10;91.60
33207;DHT22;19565;46.602;11.534;2023-09-12T14:05:47;26.20;91.60
33207;DHT22;19565;46.602;11.534;2023-09-12T14:08:16;26.20;91.40
33207;DHT22;19565;46.602;11.534;2023-09-12T14:10:45;26.30;91.50
33207;DHT22;19565;46.602;11.534;2023-09-12T14:13:14;26.30;91.50
33207;DHT22;19565;46.602;11.534;2023-09-12T14:15:48;26.40;91.40
33207;DHT22;19565;46.602;11.534;2023-09-12T14:18:18;26.50;91.50
33207;DHT22;19565;46.602;11.534;2023-09-12T14:20:48;26.60;91.60
33207;DHT22;19565;46.602;11.534;2023-09-12T14:23:19;26.60;91.40
33207;DHT22;19565;46.602;11.534;2023-09-12T14:25:48;26.70;91.20
33207;DHT22;19565;46.602;11.534;2023-09-12T14:28:18;26.70;90.80
33207;DHT22;19565;46.602;11.534;2023-09-12T14:30:48;26.80;91.00
33207;DHT22;19565;46.602;11.534;2023-09-12T14:33:16;26.80;90.20
33207;DHT22;19565;46.602;11.534;2023-09-12T14:35:46;26.90;90.40
33207;DHT22;19565;46.602;11.534;2023-09-12T14:38:14;27.00;90.90
33207;DHT22;19565;46.602;11.534;2023-09-12T14:40:42;27.00;90.30
33207;DHT22;19565;46.602;11.534;2023-09-12T14:43:11;27.10;90.20
33207;DHT22;19565;46.602;11.534;2023-09-12T14:45:41;27.20;88.80
33207;DHT22;19565;46.602;11.534;2023-09-12T14:48:09;27.20;89.10
33207;DHT22;19565;46.602;11.534;2023-09-12T14:50:37;27.20;88.00
33207;DHT22;19565;46.602;11.534;2023-09-12T14:53:10;27.30;88.00
33207;DHT22;19565;46.602;11.534;2023-09-12T14:55:39;27.50;88.30
33207;DHT22;19565;46.602;11.534;2023-09-12T14:58:07;27.60;89.20
33207;DHT22;19565;46.602;11.534;2023-09-12T15:00:36;27.80;86.70
33207;DHT22;19565;46.602;11.534;2023-09-12T15:03:06;28.00;86.20
33207;DHT22;19565;46.602;11.534;2023-09-12T15:05:34;28.10;86.10
33207;DHT22;19565;46.602;11.534;2023-09-12T15:08:02;28.00;85.20
33207;DHT22;19565;46.602;11.534;2023-09-12T15:10:31;27.90;86.10
33207;DHT22;19565;46.602;11.534;2023-09-12T15:12:59;27.60;87.00
33207;DHT22;19565;46.602;11.534;2023-09-12T15:15:27;27.40;88.10
33207;DHT22;19565;46.602;11.534;2023-09-12T15:17:55;27.10;88.40
33207;DHT22;19565;46.602;11.534;2023-09-12T15:20:25;26.90;89.40
33207;DHT22;19565;46.602;11.534;2023-09-12T15:22:53;26.80;90.00
33207;DHT22;19565;46.602;11.534;2023-09-12T15:25:21;26.60;90.20
33207;DHT22;19565;46.602;11.534;2023-09-12T15:27:49;26.50;90.10